Time;durP1;ratioP1;P1;durP2;ratioP2;P2;SDS_P1;SDS_P2;PMS_P1;PMS_P2;Temp;Humidity;BMP_temperature;BMP_pressure;BME280_temperature;BME280_humidity;BME280_pressure;Samples;Min_cycle;Max_cycle;Signal;HPM_P1;HPM_P2
2021/12/02 00:00:22;;;;;;;0.00;0.00;;;7.90;90.50;;;;;;4098273;28;20047;-62
2021/12/02 00:02:45;;;;;;;0.00;0.00;;;7.90;90.40;;;;;;4111647;28;20047;-67
2021/12/02 00:05:08;;;;;;;0.00;0.00;;;7.80;90.10;;;;;;4098184;29;20501;-65
2021/12/02 00:07:30;;;;;;;0.00;0.00;;;7.80;90.00;;;;;;4098444;28;20070;-67
2021/12/02 00:09:54;;;;;;;0.00;0.00;;;7.90;89.70;;;;;;4098108;29;20111;-67
2021/12/02 00:12:17;;;;;;;0.00;0.00;;;7.90;89.70;;;;;;4097726;28;20054;-65
2021/12/02 00:14:44;;;;;;;0.00;0.00;;;7.90;89.30;;;;;;4098587;28;20043;-66
2021/12/02 00:17:29;;;;;;;0.00;0.00;;;7.90;89.10;;;;;;4097936;28;20071;-67
2021/12/02 00:22:43;;;;;;;0.00;0.00;;;8.00;88.70;;;;;;4097771;29;20046;-67
2021/12/02 00:25:06;;;;;;;0.00;0.00;;;8.00;88.60;;;;;;4111415;28;20047;-67
2021/12/02 00:27:29;;;;;;;0.00;0.00;;;7.90;88.40;;;;;;4097897;29;20047;-54
2021/12/02 00:29:57;;;;;;;0.00;0.00;;;8.00;88.70;;;;;;4097935;29;20061;-63
2021/12/02 00:32:20;;;;;;;0.00;0.00;;;8.00;88.60;;;;;;4097330;28;20102;-67
2021/12/02 00:34:45;;;;;;;0.00;0.00;;;8.10;88.70;;;;;;4098212;29;20074;-67
2021/12/02 00:37:08;;;;;;;0.00;0.00;;;8.00;88.60;;;;;;4097971;28;20504;-65
2021/12/02 00:39:31;;;;;;;0.00;0.00;;;8.00;88.90;;;;;;4111280;28;20097;-68
2021/12/02 00:41:55;;;;;;;0.00;0.00;;;8.00;88.70;;;;;;4094951;28;20051;-66
2021/12/02 00:44:18;;;;;;;0.00;0.00;;;7.90;88.50;;;;;;4081713;29;20052;-67
2021/12/02 00:46:42;;;;;;;0.00;0.00;;;8.00;88.80;;;;;;4098817;28;20046;-63
2021/12/02 00:49:11;;;;;;;0.00;0.00;;;8.00;89.00;;;;;;4111241;28;20050;-67
2021/12/02 00:51:35;;;;;;;0.00;0.00;;;8.00;88.90;;;;;;4110921;28;20047;-66
2021/12/02 00:54:02;;;;;;;0.00;0.00;;;8.00;88.90;;;;;;4097335;28;20529;-66
2021/12/02 00:56:25;;;;;;;0.00;0.00;;;8.10;88.80;;;;;;4081277;29;20063;-66
2021/12/02 00:58:49;;;;;;;0.00;0.00;;;8.00;88.50;;;;;;4084122;29;20512;-65
2021/12/02 01:01:11;;;;;;;0.00;0.00;;;8.10;88.50;;;;;;4094983;29;20098;-64
2021/12/02 01:03:36;;;;;;;0.00;0.00;;;8.10;88.20;;;;;;4081895;29;20122;-52
2021/12/02 01:05:59;;;;;;;0.00;0.00;;;8.10;88.20;;;;;;4081762;29;20071;-52
2021/12/02 01:08:22;;;;;;;0.00;0.00;;;8.10;88.20;;;;;;4097179;28;20051;-52
2021/12/02 01:10:45;;;;;;;0.00;0.00;;;8.10;88.50;;;;;;4097279;29;20051;-50
2021/12/02 01:13:07;;;;;;;0.00;0.00;;;8.10;88.80;;;;;;4084224;29;20564;-52
2021/12/02 01:15:30;;;;;;;0.00;0.00;;;8.10;88.70;;;;;;4110904;28;20062;-52
2021/12/02 01:17:53;;;;;;;0.00;0.00;;;8.10;88.40;;;;;;4097492;28;20051;-52
2021/12/02 01:20:15;;;;;;;0.00;0.00;;;8.10;88.20;;;;;;4110475;28;20098;-56
2021/12/02 01:22:39;;;;;;;0.00;0.00;;;8.10;88.20;;;;;;4097518;28;20055;-53
2021/12/02 01:25:02;;;;;;;0.00;0.00;;;8.20;88.30;;;;;;4097497;28;20057;-60
2021/12/02 01:27:25;;;;;;;0.00;0.00;;;8.10;88.50;;;;;;4110728;28;20053;-66
2021/12/02 01:29:48;;;;;;;0.00;0.00;;;8.10;89.00;;;;;;4097331;29;20146;-66
2021/12/02 01:32:11;;;;;;;0.00;0.00;;;8.00;89.40;;;;;;4110455;28;20054;-66
2021/12/02 01:34:34;;;;;;;0.00;0.00;;;7.90;89.40;;;;;;4097252;28;20046;-63
2021/12/02 01:36:57;;;;;;;0.00;0.00;;;7.90;89.80;;;;;;4097380;29;20039;-64
2021/12/02 01:39:20;;;;;;;0.00;0.00;;;7.90;90.10;;;;;;4097317;28;20047;-65
2021/12/02 01:41:49;;;;;;;0.00;0.00;;;7.80;90.20;;;;;;4096971;28;20094;-60
2021/12/02 01:44:13;;;;;;;0.00;0.00;;;7.70;90.40;;;;;;4097298;28;20062;-66
2021/12/02 01:46:37;;;;;;;0.00;0.00;;;7.70;90.40;;;;;;4081111;29;20048;-65
2021/12/02 01:49:03;;;;;;;0.00;0.00;;;7.60;90.60;;;;;;4094874;29;20118;-58
2021/12/02 01:51:27;;;;;;;0.00;0.00;;;7.50;90.70;;;;;;4094539;29;20059;-65
2021/12/02 01:53:51;;;;;;;0.00;0.00;;;7.40;90.90;;;;;;4081339;29;20461;-66
2021/12/02 01:56:16;;;;;;;0.00;0.00;;;7.40;90.90;;;;;;4094211;28;20059;-67
2021/12/02 01:58:46;;;;;;;0.00;0.00;;;7.40;91.10;;;;;;4094676;29;20051;-55
2021/12/02 02:01:19;;;;;;;0.00;0.00;;;7.40;91.30;;;;;;4068109;29;20052;-62
2021/12/02 02:03:43;;;;;;;0.00;0.00;;;7.50;91.30;;;;;;4081372;29;20585;-63
2021/12/02 02:06:07;;;;;;;0.00;0.00;;;7.50;91.30;;;;;;4096488;29;20055;-62
2021/12/02 02:08:29;;;;;;;0.00;0.00;;;7.60;91.30;;;;;;4084022;29;20494;-63
2021/12/02 02:10:52;;;;;;;0.00;0.00;;;7.60;91.30;;;;;;4084105;29;20055;-64
2021/12/02 02:13:15;;;;;;;0.00;0.00;;;7.60;91.50;;;;;;4084312;29;20047;-65
2021/12/02 02:15:43;;;;;;;0.00;0.00;;;7.60;91.70;;;;;;4084203;29;20075;-61
2021/12/02 02:18:14;;;;;;;0.00;0.00;;;7.50;91.90;;;;;;4083297;29;20089;-66
2021/12/02 02:20:52;;;;;;;0.00;0.00;;;7.50;92.00;;;;;;4083528;29;20040;-66
2021/12/02 02:23:14;;;;;;;0.00;0.00;;;7.50;92.20;;;;;;4084128;29;20118;-66
2021/12/02 02:25:39;;;;;;;0.00;0.00;;;7.40;92.40;;;;;;4083981;29;20637;-58
2021/12/02 02:28:01;;;;;;;0.00;0.00;;;7.30;92.50;;;;;;4084033;29;20062;-63
2021/12/02 02:30:23;;;;;;;0.00;0.00;;;7.30;92.50;;;;;;4083634;28;20047;-66
2021/12/02 02:32:46;;;;;;;0.00;0.00;;;7.20;92.60;;;;;;4084006;29;20063;-63
2021/12/02 02:35:09;;;;;;;0.00;0.00;;;7.20;92.70;;;;;;4083903;29;20421;-67
2021/12/02 02:37:34;;;;;;;0.00;0.00;;;7.20;92.80;;;;;;4083795;29;20051;-66
2021/12/02 02:39:56;;;;;;;0.00;0.00;;;7.20;93.00;;;;;;4083924;29;20063;-67
2021/12/02 02:42:23;;;;;;;0.00;0.00;;;7.20;93.00;;;;;;4069986;28;20510;-65
2021/12/02 02:44:45;;;;;;;0.00;0.00;;;7.20;93.00;;;;;;4097177;28;20043;-66
2021/12/02 02:47:07;;;;;;;0.00;0.00;;;7.10;92.80;;;;;;4083930;29;20104;-66
2021/12/02 02:49:29;;;;;;;0.00;0.00;;;7.10;92.60;;;;;;4083644;29;20050;-67
2021/12/02 02:51:52;;;;;;;0.00;0.00;;;7.20;92.70;;;;;;4083453;29;20123;-67
2021/12/02 02:54:16;;;;;;;0.00;0.00;;;7.20;92.60;;;;;;4083356;29;20576;-67
2021/12/02 02:56:51;;;;;;;0.00;0.00;;;7.20;92.70;;;;;;4083626;29;20043;-67
2021/12/02 03:02:03;;;;;;;0.00;0.00;;;7.20;92.30;;;;;;4083342;29;20051;-65
2021/12/02 03:04:35;;;;;;;0.00;0.00;;;7.20;92.10;;;;;;4083193;29;20514;-64
2021/12/02 03:11:59;;;;;;;0.00;0.00;;;7.30;92.00;;;;;;4083398;29;20052;-61
2021/12/02 03:14:34;;;;;;;0.00;0.00;;;7.20;91.90;;;;;;4083117;29;20505;-65
2021/12/02 03:16:56;;;;;;;0.00;0.00;;;7.20;91.90;;;;;;4096022;28;20591;-56
2021/12/02 03:19:35;;;;;;;0.00;0.00;;;7.20;91.50;;;;;;4092198;29;20043;-60
2021/12/02 03:22:03;;;;;;;0.00;0.00;;;7.20;91.40;;;;;;4098166;29;20051;-67
2021/12/02 03:24:26;;;;;;;0.00;0.00;;;7.20;91.40;;;;;;4098626;28;20056;-66
2021/12/02 03:26:49;;;;;;;0.00;0.00;;;7.20;91.40;;;;;;4098745;29;20055;-63
2021/12/02 03:29:11;;;;;;;0.00;0.00;;;7.30;91.30;;;;;;4099040;29;20878;-63
2021/12/02 03:31:34;;;;;;;0.00;0.00;;;7.30;91.30;;;;;;4098704;29;20126;-66
2021/12/02 03:33:56;;;;;;;0.00;0.00;;;7.30;91.40;;;;;;4098942;29;20159;-62
2021/12/02 03:36:19;;;;;;;0.00;0.00;;;7.30;91.60;;;;;;4098430;28;20158;-59
2021/12/02 03:38:43;;;;;;;0.00;0.00;;;7.40;91.30;;;;;;4098851;29;20044;-67
2021/12/02 03:41:06;;;;;;;0.00;0.00;;;7.30;91.20;;;;;;4084638;29;20464;-67
2021/12/02 03:43:38;;;;;;;0.00;0.00;;;7.30;91.10;;;;;;4082742;29;20051;-67
2021/12/02 03:46:00;;;;;;;0.00;0.00;;;7.30;91.10;;;;;;4082889;29;20055;-67
2021/12/02 03:48:22;;;;;;;0.00;0.00;;;7.30;91.10;;;;;;4081481;29;20083;-67
2021/12/02 03:50:44;;;;;;;0.00;0.00;;;7.30;90.90;;;;;;4082754;29;20109;-50
2021/12/02 03:53:06;;;;;;;0.00;0.00;;;7.40;90.90;;;;;;4082664;29;20373;-67
2021/12/02 03:55:28;;;;;;;0.00;0.00;;;7.40;90.80;;;;;;4082466;29;20115;-66
2021/12/02 03:57:51;;;;;;;0.00;0.00;;;7.40;90.80;;;;;;4082718;29;20052;-67
2021/12/02 04:00:13;;;;;;;0.00;0.00;;;7.40;90.80;;;;;;4069019;29;20056;-52
2021/12/02 04:02:36;;;;;;;0.00;0.00;;;7.40;90.80;;;;;;4070993;29;20036;-67
2021/12/02 04:04:59;;;;;;;0.00;0.00;;;7.40;90.70;;;;;;4069275;29;20048;-66
2021/12/02 04:07:25;;;;;;;0.00;0.00;;;7.40;90.60;;;;;;4069365;29;20048;-59
2021/12/02 04:09:48;;;;;;;0.00;0.00;;;7.40;90.60;;;;;;4069290;29;20159;-67
2021/12/02 04:12:28;;;;;;;0.00;0.00;;;7.40;90.40;;;;;;4068960;29;20052;-65
2021/12/02 04:15:01;;;;;;;0.00;0.00;;;7.40;90.40;;;;;;4084436;29;20474;-65
2021/12/02 04:17:44;;;;;;;0.00;0.00;;;7.40;90.30;;;;;;4084669;29;20051;-53
2021/12/02 04:20:07;;;;;;;0.00;0.00;;;7.40;90.30;;;;;;4084731;29;20462;-52
2021/12/02 04:22:29;;;;;;;0.00;0.00;;;7.30;90.00;;;;;;4082215;29;20051;-49
2021/12/02 04:24:51;;;;;;;0.00;0.00;;;7.40;89.70;;;;;;4082458;29;20478;-52
2021/12/02 04:27:15;;;;;;;0.00;0.00;;;7.40;89.70;;;;;;4082063;29;20052;-53
2021/12/02 04:29:37;;;;;;;0.00;0.00;;;7.40;90.10;;;;;;4082035;29;20525;-60
2021/12/02 04:31:59;;;;;;;0.00;0.00;;;7.40;89.40;;;;;;4082937;29;20047;-54
2021/12/02 04:34:22;;;;;;;0.00;0.00;;;7.40;89.10;;;;;;4082904;28;20052;-54
2021/12/02 04:36:46;;;;;;;0.00;0.00;;;7.40;89.20;;;;;;4082163;29;20087;-52
2021/12/02 04:39:08;;;;;;;0.00;0.00;;;7.40;88.80;;;;;;4068844;29;20047;-51
2021/12/02 04:41:31;;;;;;;0.00;0.00;;;7.50;88.90;;;;;;4076404;29;20432;-51
2021/12/02 04:43:53;;;;;;;0.00;0.00;;;7.40;88.80;;;;;;4095201;29;20059;-56
2021/12/02 04:46:15;;;;;;;0.00;0.00;;;7.40;88.70;;;;;;4084021;28;20115;-55
2021/12/02 04:48:38;;;;;;;0.00;0.00;;;7.30;87.90;;;;;;4084540;29;20589;-54
2021/12/02 04:51:00;;;;;;;0.00;0.00;;;7.30;88.00;;;;;;4084099;29;20044;-52
2021/12/02 04:53:23;;;;;;;0.00;0.00;;;7.30;87.90;;;;;;4081783;29;20540;-67
2021/12/02 04:55:45;;;;;;;0.00;0.00;;;7.30;88.00;;;;;;4068781;29;20071;-66
2021/12/02 04:58:08;;;;;;;0.00;0.00;;;7.30;87.70;;;;;;4096980;29;20111;-67
2021/12/02 05:00:31;;;;;;;0.00;0.00;;;7.30;87.40;;;;;;4068173;29;20052;-66
2021/12/02 05:02:54;;;;;;;0.00;0.00;;;7.30;87.10;;;;;;4073986;29;20407;-68
2021/12/02 05:05:17;;;;;;;0.00;0.00;;;7.30;87.50;;;;;;4084004;29;20108;-66
2021/12/02 05:07:40;;;;;;;0.00;0.00;;;7.30;87.50;;;;;;4084302;29;20094;-65
2021/12/02 05:10:06;;;;;;;0.00;0.00;;;7.30;87.50;;;;;;4084509;29;20568;-67
2021/12/02 05:12:28;;;;;;;0.00;0.00;;;7.30;87.20;;;;;;4083662;28;20055;-66
2021/12/02 05:14:54;;;;;;;0.00;0.00;;;7.30;87.00;;;;;;4084295;29;20048;-65
2021/12/02 05:17:17;;;;;;;0.00;0.00;;;7.30;86.90;;;;;;4083838;29;20154;-67
2021/12/02 05:19:39;;;;;;;0.00;0.00;;;7.30;86.90;;;;;;4084109;29;20055;-60
2021/12/02 05:22:01;;;;;;;0.00;0.00;;;7.30;86.90;;;;;;4097198;28;20043;-67
2021/12/02 05:24:25;;;;;;;0.00;0.00;;;7.30;86.90;;;;;;4083427;28;20441;-65
2021/12/02 05:26:47;;;;;;;0.00;0.00;;;7.30;86.90;;;;;;4097339;28;20047;-65
2021/12/02 05:29:14;;;;;;;0.00;0.00;;;7.30;86.90;;;;;;4084082;29;20533;-67
2021/12/02 05:31:37;;;;;;;0.00;0.00;;;7.30;86.80;;;;;;4082711;29;20062;-66
2021/12/02 05:33:59;;;;;;;0.00;0.00;;;7.40;86.70;;;;;;4084059;29;20055;-66
2021/12/02 05:36:21;;;;;;;0.00;0.00;;;7.30;86.70;;;;;;4083601;29;20139;-67
2021/12/02 05:38:44;;;;;;;0.00;0.00;;;7.30;86.70;;;;;;4083948;28;20054;-65
2021/12/02 05:41:06;;;;;;;0.00;0.00;;;7.30;87.00;;;;;;4086984;29;20052;-57
2021/12/02 05:43:30;;;;;;;0.00;0.00;;;7.30;86.40;;;;;;4086987;29;20052;-67
2021/12/02 05:45:52;;;;;;;0.00;0.00;;;7.30;86.30;;;;;;4087091;29;20047;-67
2021/12/02 05:48:14;;;;;;;0.00;0.00;;;7.30;86.10;;;;;;4086802;28;20167;-67
2021/12/02 05:50:37;;;;;;;0.00;0.00;;;7.30;86.30;;;;;;4086860;29;20044;-67
2021/12/02 05:52:59;;;;;;;0.00;0.00;;;7.20;86.30;;;;;;4093121;28;20043;-66
2021/12/02 05:55:22;;;;;;;0.00;0.00;;;7.20;86.30;;;;;;4102884;28;20505;-61
2021/12/02 05:57:44;;;;;;;0.00;0.00;;;7.20;86.40;;;;;;4102805;28;20126;-64
2021/12/02 06:00:10;;;;;;;0.00;0.00;;;7.20;86.40;;;;;;4102784;28;20133;-66
2021/12/02 06:02:37;;;;;;;0.00;0.00;;;7.20;86.10;;;;;;4102396;28;20040;-57
2021/12/02 06:04:59;;;;;;;0.00;0.00;;;7.20;86.30;;;;;;4102650;28;20058;-56
2021/12/02 06:07:23;;;;;;;0.00;0.00;;;7.20;86.20;;;;;;4102699;28;20058;-62
2021/12/02 06:09:46;;;;;;;0.00;0.00;;;7.30;86.20;;;;;;4077136;29;20056;-61
2021/12/02 06:12:09;;;;;;;0.00;0.00;;;7.30;86.80;;;;;;4086557;29;20095;-67
2021/12/02 06:14:31;;;;;;;0.00;0.00;;;7.20;86.20;;;;;;4099667;28;20154;-67
2021/12/02 06:16:53;;;;;;;0.00;0.00;;;7.20;86.20;;;;;;4099579;29;20047;-64
2021/12/02 06:19:15;;;;;;;0.00;0.00;;;7.20;86.10;;;;;;4086590;29;20058;-64
2021/12/02 06:21:39;;;;;;;0.00;0.00;;;7.20;86.20;;;;;;4086334;29;20053;-66
2021/12/02 06:24:04;;;;;;;0.00;0.00;;;7.30;86.20;;;;;;4086445;29;20054;-67
2021/12/02 06:26:26;;;;;;;0.00;0.00;;;7.30;86.00;;;;;;4099540;28;20094;-54
2021/12/02 06:28:48;;;;;;;0.00;0.00;;;7.30;86.00;;;;;;4091423;28;20578;-66
2021/12/02 06:31:10;;;;;;;0.00;0.00;;;7.30;86.10;;;;;;4094434;29;20063;-67
2021/12/02 06:33:33;;;;;;;0.00;0.00;;;7.20;86.00;;;;;;4099765;29;20049;-54
2021/12/02 06:35:56;;;;;;;0.00;0.00;;;7.20;86.20;;;;;;4086260;29;20512;-67
2021/12/02 06:38:18;;;;;;;0.00;0.00;;;7.20;86.20;;;;;;4100864;28;20055;-52
2021/12/02 06:40:45;;;;;;;0.00;0.00;;;7.20;86.30;;;;;;4085965;28;20049;-67
2021/12/02 06:43:07;;;;;;;0.00;0.00;;;7.10;86.40;;;;;;4093369;28;20070;-67
2021/12/02 06:45:30;;;;;;;0.00;0.00;;;7.10;85.90;;;;;;4102003;28;20548;-67
2021/12/02 06:47:57;;;;;;;0.00;0.00;;;7.10;86.00;;;;;;4088721;29;20047;-61
2021/12/02 06:50:20;;;;;;;0.00;0.00;;;7.10;86.20;;;;;;4085575;28;20054;-54
2021/12/02 06:52:43;;;;;;;0.00;0.00;;;7.10;86.20;;;;;;4089883;28;20138;-63
2021/12/02 06:55:07;;;;;;;0.00;0.00;;;7.10;86.20;;;;;;4101576;28;20081;-57
2021/12/02 06:57:30;;;;;;;0.00;0.00;;;7.10;86.20;;;;;;4091748;28;20513;-54
2021/12/02 06:59:52;;;;;;;0.00;0.00;;;7.10;86.20;;;;;;4086015;29;20048;-65
2021/12/02 07:02:15;;;;;;;0.00;0.00;;;7.10;86.20;;;;;;4099807;28;20480;-64
2021/12/02 07:04:37;;;;;;;0.00;0.00;;;7.10;86.40;;;;;;4085945;29;20048;-62
2021/12/02 07:06:59;;;;;;;0.00;0.00;;;7.10;86.50;;;;;;4085594;29;20052;-59
2021/12/02 07:09:22;;;;;;;0.00;0.00;;;7.20;86.40;;;;;;4085859;29;20052;-65
2021/12/02 07:11:44;;;;;;;0.00;0.00;;;7.20;86.40;;;;;;4085686;29;20047;-58
2021/12/02 07:14:09;;;;;;;0.00;0.00;;;7.20;86.30;;;;;;4085579;29;20051;-63
2021/12/02 07:16:32;;;;;;;0.00;0.00;;;7.20;86.20;;;;;;4100856;28;20063;-53
2021/12/02 07:18:57;;;;;;;0.00;0.00;;;7.20;86.30;;;;;;4099256;28;20043;-63
2021/12/02 07:21:19;;;;;;;0.00;0.00;;;7.20;86.40;;;;;;4093365;29;20537;-55
2021/12/02 07:23:42;;;;;;;0.00;0.00;;;7.10;86.10;;;;;;4098949;29;20043;-51
2021/12/02 07:26:04;;;;;;;0.00;0.00;;;7.10;86.60;;;;;;4085687;29;20063;-58
2021/12/02 07:28:26;;;;;;;0.00;0.00;;;7.20;86.40;;;;;;4083250;28;20083;-62
2021/12/02 07:30:55;;;;;;;0.00;0.00;;;7.30;86.50;;;;;;4070331;29;20054;-54
2021/12/02 07:33:20;;;;;;;0.00;0.00;;;7.30;86.50;;;;;;4085354;29;20095;-54
2021/12/02 07:35:43;;;;;;;0.00;0.00;;;7.40;86.20;;;;;;4085349;29;20138;-59
2021/12/02 07:38:06;;;;;;;0.00;0.00;;;7.40;86.00;;;;;;4097724;28;20546;-60
2021/12/02 07:40:37;;;;;;;0.00;0.00;;;7.50;86.00;;;;;;4098404;28;20050;-54
2021/12/02 07:42:59;;;;;;;0.00;0.00;;;7.50;86.00;;;;;;4111895;28;20126;-64
2021/12/02 07:45:26;;;;;;;0.00;0.00;;;7.40;85.90;;;;;;4098686;29;20142;-59
2021/12/02 07:47:49;;;;;;;0.00;0.00;;;7.40;86.10;;;;;;4085718;29;20524;-51
2021/12/02 07:50:15;;;;;;;0.00;0.00;;;7.30;86.40;;;;;;4098506;29;20055;-53
2021/12/02 07:52:45;;;;;;;0.00;0.00;;;7.30;86.60;;;;;;4111268;28;20051;-62
2021/12/02 07:55:09;;;;;;;0.00;0.00;;;7.30;86.60;;;;;;4092345;28;20101;-63
2021/12/02 07:57:33;;;;;;;0.00;0.00;;;7.30;86.40;;;;;;4108781;28;20058;-58
2021/12/02 07:59:56;;;;;;;0.00;0.00;;;7.30;86.40;;;;;;4087011;28;20533;-59
2021/12/02 08:02:18;;;;;;;0.00;0.00;;;7.30;86.60;;;;;;4097755;28;20051;-59
2021/12/02 08:04:41;;;;;;;0.00;0.00;;;7.30;86.70;;;;;;4102002;28;20089;-58
2021/12/02 08:07:03;;;;;;;0.00;0.00;;;7.30;86.60;;;;;;4100933;28;20062;-59
2021/12/02 08:09:25;;;;;;;0.00;0.00;;;7.40;86.50;;;;;;4104294;28;20063;-48
2021/12/02 08:11:48;;;;;;;0.00;0.00;;;7.40;86.50;;;;;;4098075;29;20059;-57
2021/12/02 08:14:15;;;;;;;0.00;0.00;;;7.40;86.50;;;;;;4084580;29;20061;-60
2021/12/02 08:16:37;;;;;;;0.00;0.00;;;7.40;86.30;;;;;;4071649;29;20154;-61
2021/12/02 08:19:01;;;;;;;0.00;0.00;;;7.40;86.00;;;;;;4084427;29;20040;-61
2021/12/02 08:21:29;;;;;;;0.00;0.00;;;7.40;85.90;;;;;;4107999;28;20451;-61
2021/12/02 08:23:51;;;;;;;0.00;0.00;;;7.40;85.80;;;;;;4100625;28;20609;-61
2021/12/02 08:26:16;;;;;;;0.00;0.00;;;7.40;86.00;;;;;;4113185;28;20054;-63
2021/12/02 08:28:38;;;;;;;0.00;0.00;;;7.40;86.20;;;;;;4101481;28;20055;-59
2021/12/02 08:31:01;;;;;;;0.00;0.00;;;7.50;86.30;;;;;;4100341;28;20045;-61
2021/12/02 08:33:23;;;;;;;0.00;0.00;;;7.50;86.10;;;;;;4090776;29;20144;-62
2021/12/02 08:35:48;;;;;;;0.00;0.00;;;7.50;86.00;;;;;;4084801;29;20059;-62
2021/12/02 08:38:13;;;;;;;0.00;0.00;;;7.50;85.90;;;;;;4113176;28;20102;-61
2021/12/02 08:40:36;;;;;;;0.00;0.00;;;7.60;85.90;;;;;;4099778;28;20047;-61
2021/12/02 08:43:00;;;;;;;0.00;0.00;;;7.80;85.80;;;;;;4100241;28;20049;-60
2021/12/02 08:45:23;;;;;;;0.00;0.00;;;8.00;85.50;;;;;;4113721;28;20050;-61
2021/12/02 08:47:45;;;;;;;0.00;0.00;;;7.90;85.30;;;;;;4100238;28;20094;-59
2021/12/02 08:50:09;;;;;;;0.00;0.00;;;7.90;85.30;;;;;;4100143;28;20059;-60
2021/12/02 08:52:31;;;;;;;0.00;0.00;;;7.90;85.30;;;;;;4110724;28;20050;-59
2021/12/02 08:54:55;;;;;;;0.00;0.00;;;7.80;84.80;;;;;;4084255;29;20046;-63
2021/12/02 08:57:37;;;;;;;0.00;0.00;;;7.80;85.00;;;;;;4108593;28;20086;-56
2021/12/02 08:59:59;;;;;;;0.00;0.00;;;7.70;85.10;;;;;;4113338;28;20042;-63
2021/12/02 09:02:22;;;;;;;0.00;0.00;;;7.60;85.00;;;;;;4099142;28;20054;-62
2021/12/02 09:04:44;;;;;;;0.00;0.00;;;7.60;85.70;;;;;;4099924;28;20531;-61
2021/12/02 09:07:07;;;;;;;0.00;0.00;;;7.60;85.90;;;;;;4113145;28;20055;-62
2021/12/02 09:09:29;;;;;;;0.00;0.00;;;7.60;86.30;;;;;;4100050;28;20644;-63
2021/12/02 09:11:54;;;;;;;0.00;0.00;;;7.50;86.50;;;;;;4113100;28;20082;-62
2021/12/02 09:14:16;;;;;;;0.00;0.00;;;7.40;86.00;;;;;;4112346;28;20065;-63
2021/12/02 09:16:39;;;;;;;0.00;0.00;;;7.30;85.70;;;;;;4097236;29;20051;-61
2021/12/02 09:19:01;;;;;;;0.00;0.00;;;7.40;86.00;;;;;;4099942;28;20043;-55
2021/12/02 09:21:25;;;;;;;0.00;0.00;;;7.50;86.30;;;;;;4097126;29;20057;-60
2021/12/02 09:23:49;;;;;;;0.00;0.00;;;7.70;86.20;;;;;;4113150;28;20449;-62
2021/12/02 09:26:11;;;;;;;0.00;0.00;;;8.10;85.40;;;;;;4126678;28;20046;-63
2021/12/02 09:28:33;;;;;;;0.00;0.00;;;8.20;84.80;;;;;;4099766;28;20055;-62
2021/12/02 09:30:56;;;;;;;0.00;0.00;;;8.20;84.80;;;;;;4112994;28;20421;-63
2021/12/02 09:33:18;;;;;;;0.00;0.00;;;8.20;84.80;;;;;;4126904;28;20074;-62
2021/12/02 09:35:41;;;;;;;0.00;0.00;;;8.10;84.80;;;;;;4126485;28;20109;-63
2021/12/02 09:38:06;;;;;;;0.00;0.00;;;8.10;85.10;;;;;;4113147;28;20792;-61
2021/12/02 09:40:28;;;;;;;0.00;0.00;;;8.10;85.00;;;;;;4126239;28;20058;-57
2021/12/02 09:42:50;;;;;;;0.00;0.00;;;8.20;84.80;;;;;;4126804;28;20042;-62
2021/12/02 09:45:15;;;;;;;0.00;0.00;;;8.20;84.40;;;;;;4126544;28;20877;-62
2021/12/02 09:47:41;;;;;;;0.00;0.00;;;8.20;84.20;;;;;;4113084;28;20047;-59
2021/12/02 09:50:26;;;;;;;0.00;0.00;;;8.30;84.10;;;;;;4100292;28;20058;-62
2021/12/02 09:52:50;;;;;;;0.00;0.00;;;8.30;84.30;;;;;;4099253;28;20065;-62
2021/12/02 09:57:44;;;;;;;0.00;0.00;;;8.30;83.60;;;;;;4126348;28;20046;-62
2021/12/02 10:00:15;;;;;;;0.00;0.00;;;8.30;83.50;;;;;;4124076;28;20074;-66
2021/12/02 10:02:42;;;;;;;0.00;0.00;;;8.30;83.30;;;;;;4104095;28;20043;-66
2021/12/02 10:05:07;;;;;;;0.00;0.00;;;8.30;83.40;;;;;;4115586;28;20620;-64
2021/12/02 10:07:36;;;;;;;0.00;0.00;;;8.30;83.50;;;;;;4096864;28;20047;-64
2021/12/02 10:10:14;;;;;;;0.00;0.00;;;8.20;83.60;;;;;;4112334;28;20149;-63
2021/12/02 10:12:44;;;;;;;0.00;0.00;;;8.20;83.80;;;;;;4112403;28;20106;-65
2021/12/02 10:15:12;;;;;;;0.00;0.00;;;8.20;83.80;;;;;;4126095;28;20046;-61
2021/12/02 10:17:41;;;;;;;0.00;0.00;;;8.20;83.50;;;;;;4119973;28;20136;-66
2021/12/02 10:22:34;;;;;;;0.00;0.00;;;8.20;83.10;;;;;;4109938;28;20049;-64
2021/12/02 10:24:56;;;;;;;0.00;0.00;;;8.10;83.20;;;;;;4096838;28;20047;-65
2021/12/02 10:27:18;;;;;;;0.00;0.00;;;8.10;83.30;;;;;;4098764;29;20055;-64
2021/12/02 10:29:42;;;;;;;0.00;0.00;;;8.20;83.40;;;;;;4113124;28;20424;-65
2021/12/02 10:32:08;;;;;;;0.00;0.00;;;8.20;83.00;;;;;;4099426;29;20058;-65
2021/12/02 10:34:30;;;;;;;0.00;0.00;;;8.20;83.20;;;;;;4106036;28;20055;-66
2021/12/02 10:36:58;;;;;;;0.00;0.00;;;8.10;83.40;;;;;;4115505;28;20031;-65
2021/12/02 10:39:24;;;;;;;0.00;0.00;;;8.10;83.60;;;;;;4115529;28;20050;-62
2021/12/02 10:42:04;;;;;;;0.00;0.00;;;8.00;84.30;;;;;;4102416;28;20053;-63
2021/12/02 10:44:31;;;;;;;0.00;0.00;;;7.90;84.50;;;;;;4115048;28;20082;-64
2021/12/02 10:47:02;;;;;;;0.00;0.00;;;7.90;85.20;;;;;;4129112;28;20046;-59
2021/12/02 10:49:35;;;;;;;0.00;0.00;;;7.90;86.20;;;;;;4115423;28;20435;-64
2021/12/02 10:52:01;;;;;;;0.00;0.00;;;7.90;85.80;;;;;;4114958;28;20046;-55
2021/12/02 10:54:30;;;;;;;0.00;0.00;;;7.90;85.60;;;;;;4114913;28;20055;-63
2021/12/02 10:56:58;;;;;;;0.00;0.00;;;7.80;85.70;;;;;;4115318;28;20398;-64
2021/12/02 10:59:52;;;;;;;0.00;0.00;;;7.70;86.20;;;;;;4115167;28;20050;-62
2021/12/02 11:02:29;;;;;;;0.00;0.00;;;7.60;86.50;;;;;;4114580;28;20051;-63
2021/12/02 11:04:55;;;;;;;0.00;0.00;;;7.40;87.00;;;;;;4115113;28;20129;-65
2021/12/02 11:07:32;;;;;;;0.00;0.00;;;7.50;87.20;;;;;;4115169;28;20121;-64
2021/12/02 11:10:15;;;;;;;0.00;0.00;;;7.30;87.30;;;;;;4112677;28;20081;-63
2021/12/02 11:12:41;;;;;;;0.00;0.00;;;7.40;87.80;;;;;;4112195;28;20046;-65
2021/12/02 11:15:13;;;;;;;0.00;0.00;;;7.40;87.50;;;;;;4098593;29;20216;-65
2021/12/02 11:17:49;;;;;;;0.00;0.00;;;7.40;88.00;;;;;;4098964;29;20110;-64
2021/12/02 11:20:17;;;;;;;0.00;0.00;;;7.40;87.80;;;;;;4098780;28;20051;-65
2021/12/02 11:22:41;;;;;;;0.00;0.00;;;7.50;87.80;;;;;;4098451;29;20090;-62
2021/12/02 11:25:08;;;;;;;0.00;0.00;;;7.40;87.50;;;;;;4099032;29;20047;-62
2021/12/02 11:27:38;;;;;;;0.00;0.00;;;7.40;87.60;;;;;;4098950;29;20132;-63
2021/12/02 11:30:03;;;;;;;0.00;0.00;;;7.40;87.60;;;;;;4098829;29;20075;-65
2021/12/02 11:32:34;;;;;;;0.00;0.00;;;7.40;87.50;;;;;;4098276;28;20163;-63
2021/12/02 11:35:03;;;;;;;0.00;0.00;;;7.40;87.80;;;;;;4098676;28;20047;-66
2021/12/02 11:37:26;;;;;;;0.00;0.00;;;7.40;88.40;;;;;;4098424;28;20690;-64
2021/12/02 11:39:50;;;;;;;0.00;0.00;;;7.20;88.80;;;;;;4112014;28;20508;-61
2021/12/02 11:42:16;;;;;;;0.00;0.00;;;7.30;89.00;;;;;;4111430;28;20059;-58
2021/12/02 11:44:39;;;;;;;0.00;0.00;;;7.30;89.30;;;;;;4098812;29;20047;-67
2021/12/02 11:47:02;;;;;;;0.00;0.00;;;7.40;89.10;;;;;;4098652;29;20516;-66
2021/12/02 11:49:25;;;;;;;0.00;0.00;;;7.30;89.00;;;;;;4098366;29;20054;-61
2021/12/02 11:51:47;;;;;;;0.00;0.00;;;7.10;88.40;;;;;;4098236;29;20138;-59
2021/12/02 11:54:10;;;;;;;0.00;0.00;;;6.90;89.30;;;;;;4098510;29;20043;-52
2021/12/02 11:56:32;;;;;;;0.00;0.00;;;7.00;89.60;;;;;;4098128;29;20137;-51
2021/12/02 11:58:56;;;;;;;0.00;0.00;;;7.00;89.30;;;;;;4098306;29;20047;-66
2021/12/02 12:01:26;;;;;;;0.00;0.00;;;7.10;89.10;;;;;;4101944;28;20464;-54
2021/12/02 12:04:05;;;;;;;0.00;0.00;;;7.10;88.80;;;;;;4114244;28;20412;-60
2021/12/02 12:06:31;;;;;;;0.00;0.00;;;7.20;88.60;;;;;;4114000;28;20138;-56
2021/12/02 12:08:55;;;;;;;0.00;0.00;;;7.20;88.50;;;;;;4127844;28;20042;-57
2021/12/02 12:11:25;;;;;;;0.00;0.00;;;7.30;88.40;;;;;;4113892;28;20047;-54
2021/12/02 12:13:58;;;;;;;0.00;0.00;;;7.30;88.60;;;;;;4114166;28;20447;-52
2021/12/02 12:16:29;;;;;;;0.00;0.00;;;7.40;87.60;;;;;;4113705;28;20058;-54
2021/12/02 12:18:52;;;;;;;;;;;7.20;87.50;;;;;;4114367;28;20050;-62
2021/12/02 12:21:15;;;;;;;0.00;0.00;;;7.30;87.70;;;;;;4113838;28;19933;-57
2021/12/02 12:23:41;;;;;;;0.00;0.00;;;7.30;87.40;;;;;;4113954;28;20133;-52
2021/12/02 12:26:16;;;;;;;0.00;0.00;;;7.40;87.10;;;;;;4114068;28;20061;-53
2021/12/02 12:29:13;;;;;;;0.00;0.00;;;7.40;87.00;;;;;;4127071;28;20069;-53
2021/12/02 12:31:55;;;;;;;0.00;0.00;;;7.40;87.60;;;;;;4100506;28;20413;-61
2021/12/02 12:37:45;;;;;;;0.00;0.00;;;7.40;88.60;;;;;;4113952;28;20523;-65
2021/12/02 12:40:23;;;;;;;0.00;0.00;;;7.50;88.80;;;;;;4113672;28;20089;-62
2021/12/02 12:42:50;;;;;;;0.00;0.00;;;7.50;88.30;;;;;;4113299;28;20153;-63
2021/12/02 12:45:27;;;;;;;0.00;0.00;;;7.40;88.60;;;;;;4113865;28;20050;-65
2021/12/02 12:47:53;;;;;;;0.00;0.00;;;7.40;88.80;;;;;;4113676;28;20047;-64
2021/12/02 12:50:29;;;;;;;0.00;0.00;;;7.40;89.40;;;;;;4112478;28;20089;-64
2021/12/02 12:53:18;;;;;;;0.00;0.00;;;7.40;89.50;;;;;;4113622;28;20078;-65
2021/12/02 12:55:49;;;;;;;0.00;0.00;;;7.30;89.10;;;;;;4113490;28;20117;-65
2021/12/02 12:58:26;;;;;;;0.00;0.00;;;7.30;89.10;;;;;;4113062;28;20472;-64
2021/12/02 13:00:59;;;;;;;0.00;0.00;;;7.40;88.90;;;;;;4099957;28;20231;-62
2021/12/02 13:03:39;;;;;;;0.00;0.00;;;7.50;88.90;;;;;;4113464;28;20085;-63
2021/12/02 13:06:27;;;;;;;0.00;0.00;;;7.50;88.40;;;;;;4113354;28;20046;-65